createdAt,value
2023-01-22T00:01:21.047Z,4.18
2023-01-22T00:03:49.673Z,4.16
2023-01-22T00:06:17.424Z,4.23
2023-01-22T00:08:46.646Z,4.30
2023-01-22T00:11:15.840Z,4.37
2023-01-22T00:13:43.968Z,4.44
2023-01-22T00:16:16.624Z,4.44
2023-01-22T00:18:44.630Z,4.50
2023-01-22T00:21:13.557Z,4.55
2023-01-22T00:23:41.655Z,4.61
2023-01-22T00:26:15.729Z,4.71
2023-01-22T00:28:45.809Z,4.72
2023-01-22T00:31:16.093Z,4.69
2023-01-22T00:33:45.512Z,4.69
2023-01-22T00:36:19.135Z,4.68
2023-01-22T00:38:50.412Z,4.63
2023-01-22T00:41:20.225Z,4.64
2023-01-22T00:43:50.028Z,4.63
2023-01-22T00:46:18.884Z,4.65
2023-01-22T00:48:49.475Z,4.54
2023-01-22T00:51:17.566Z,4.55
2023-01-22T00:53:45.950Z,4.45
2023-01-22T00:56:15.277Z,4.43
2023-01-22T00:58:43.732Z,4.35
2023-01-22T01:01:14.699Z,4.31
2023-01-22T01:03:43.156Z,4.33
2023-01-22T01:06:19.778Z,4.34
2023-01-22T01:08:49.364Z,4.30
2023-01-22T01:11:23.144Z,4.32
2023-01-22T01:13:52.837Z,4.39
2023-01-22T01:16:26.815Z,4.45
2023-01-22T01:19:05.515Z,4.45
2023-01-22T01:21:35.141Z,4.45
2023-01-22T01:24:03.840Z,4.47
2023-01-22T01:26:33.505Z,4.54
2023-01-22T01:29:04.882Z,4.59
2023-01-22T01:31:32.851Z,4.59
2023-01-22T01:34:01.152Z,4.59
2023-01-22T01:36:47.739Z,4.62
2023-01-22T01:39:16.798Z,4.68
2023-01-22T01:41:44.773Z,4.72
2023-01-22T01:44:19.706Z,4.76
2023-01-22T01:47:28.414Z,4.72
2023-01-22T01:49:56.397Z,4.70
2023-01-22T01:52:24.660Z,4.72
2023-01-22T01:54:56.535Z,4.69
2023-01-22T01:57:29.773Z,4.71
2023-01-22T01:59:59.244Z,4.70
2023-01-22T02:02:27.045Z,4.72
2023-01-22T02:04:56.283Z,4.71
2023-01-22T02:07:24.246Z,4.69
2023-01-22T02:09:52.228Z,4.70
2023-01-22T02:12:19.913Z,4.77
2023-01-22T02:14:50.700Z,4.78
2023-01-22T02:17:22.782Z,4.80
2023-01-22T02:19:52.428Z,4.80
2023-01-22T02:22:23.951Z,4.83
2023-01-22T02:24:51.968Z,4.80
2023-01-22T02:27:19.933Z,4.80
2023-01-22T02:29:49.619Z,4.77
2023-01-22T02:32:18.164Z,4.77
2023-01-22T02:34:46.747Z,4.79
2023-01-22T02:37:14.477Z,4.79
2023-01-22T02:39:43.065Z,4.81
2023-01-22T02:42:11.130Z,4.78
2023-01-22T02:44:42.178Z,4.77
2023-01-22T02:47:10.348Z,4.78
2023-01-22T02:49:38.525Z,4.79
2023-01-22T02:52:06.826Z,4.83
2023-01-22T02:54:35.839Z,4.91
2023-01-22T02:57:03.690Z,4.94
2023-01-22T02:59:31.627Z,4.93
2023-01-22T03:01:59.806Z,4.93
2023-01-22T03:04:29.325Z,4.96
2023-01-22T03:06:57.253Z,4.97
2023-01-22T03:09:28.556Z,5.00
2023-01-22T03:11:56.598Z,5.00
2023-01-22T03:14:47.707Z,5.00
2023-01-22T03:17:36.141Z,5.04
2023-01-22T03:20:23.846Z,5.02
2023-01-22T03:22:51.467Z,5.01
2023-01-22T03:25:20.700Z,4.96
2023-01-22T03:28:07.822Z,4.95
2023-01-22T03:30:36.834Z,4.94
2023-01-22T03:33:04.440Z,4.94
2023-01-22T03:35:32.552Z,4.98
2023-01-22T03:38:14.979Z,4.98
2023-01-22T03:40:43.363Z,4.95
2023-01-22T03:43:11.433Z,4.99
2023-01-22T03:45:39.497Z,5.02
2023-01-22T03:48:11.788Z,5.08
2023-01-22T03:50:41.895Z,5.10
2023-01-22T03:53:09.627Z,5.13
2023-01-22T03:55:37.703Z,5.15
2023-01-22T03:58:05.659Z,5.18
2023-01-22T04:00:33.817Z,5.19
2023-01-22T04:03:04.717Z,5.16
2023-01-22T04:05:38.619Z,5.13
2023-01-22T04:08:06.783Z,5.04
2023-01-22T04:10:36.121Z,4.99
2023-01-22T04:13:04.315Z,4.99
2023-01-22T04:15:32.996Z,5.01
2023-01-22T04:18:05.768Z,5.02
2023-01-22T04:20:48.720Z,5.03
2023-01-22T04:23:33.108Z,4.96
2023-01-22T04:26:02.970Z,4.92
2023-01-22T04:28:31.155Z,4.97
2023-01-22T04:31:00.587Z,4.99
2023-01-22T04:33:51.057Z,4.99
2023-01-22T04:36:28.997Z,5.02
2023-01-22T04:38:57.035Z,5.01
2023-01-22T04:41:25.056Z,5.00
2023-01-22T04:43:53.685Z,4.87
2023-01-22T04:46:24.749Z,4.86
2023-01-22T04:48:53.040Z,4.84
2023-01-22T04:51:20.990Z,4.86
2023-01-22T04:53:48.687Z,4.87
2023-01-22T04:56:18.381Z,4.90
2023-01-22T04:58:46.769Z,4.92
2023-01-22T05:01:15.994Z,4.90
2023-01-22T05:03:44.570Z,4.91
2023-01-22T05:06:12.431Z,4.91
2023-01-22T05:08:40.278Z,4.87
2023-01-22T05:11:09.914Z,4.84
2023-01-22T05:13:49.785Z,4.85
2023-01-22T05:16:18.612Z,4.87
2023-01-22T05:18:46.130Z,4.90
2023-01-22T05:21:14.009Z,4.93
2023-01-22T05:23:41.629Z,4.98
2023-01-22T05:30:16.231Z,5.00
2023-01-22T05:32:58.612Z,5.02
2023-01-22T05:35:28.066Z,5.02
2023-01-22T05:37:57.190Z,5.04
2023-01-22T05:40:25.712Z,5.05
2023-01-22T05:42:54.122Z,5.07
2023-01-22T05:45:22.998Z,5.10
2023-01-22T05:48:20.016Z,5.08
2023-01-22T05:50:56.568Z,5.09
2023-01-22T05:53:24.345Z,5.10
2023-01-22T05:56:19.756Z,5.11
2023-01-22T06:02:39.156Z,5.02
2023-01-22T06:05:35.594Z,5.00
2023-01-22T06:08:07.392Z,5.00
2023-01-22T06:10:42.845Z,5.06
2023-01-22T06:13:10.814Z,5.11
2023-01-22T06:15:39.454Z,5.04
2023-01-22T06:18:30.037Z,5.03
2023-01-22T06:21:03.515Z,5.01
2023-01-22T06:23:31.989Z,5.02
2023-01-22T06:26:28.312Z,5.06
2023-01-22T06:29:09.619Z,5.11
2023-01-22T06:32:28.646Z,5.14
2023-01-22T06:35:55.316Z,5.08
2023-01-22T06:38:24.607Z,5.07
2023-01-22T06:40:54.259Z,5.11
2023-01-22T06:43:24.069Z,5.16
2023-01-22T06:45:52.725Z,5.18
2023-01-22T06:48:24.400Z,5.25
2023-01-22T06:50:52.054Z,5.32
2023-01-22T06:53:19.961Z,5.31
2023-01-22T06:56:09.029Z,5.29
2023-01-22T06:58:46.773Z,5.27
2023-01-22T07:01:49.478Z,5.29
2023-01-22T07:04:20.194Z,5.29
2023-01-22T07:07:00.097Z,5.34
2023-01-22T07:09:28.154Z,5.33
2023-01-22T07:11:57.466Z,5.32
2023-01-22T07:14:36.402Z,5.31
2023-01-22T07:17:05.138Z,5.28
2023-01-22T07:19:33.047Z,5.29
2023-01-22T07:22:00.603Z,5.31
2023-01-22T07:24:31.646Z,5.35
2023-01-22T07:27:21.098Z,5.38
2023-01-22T07:30:30.245Z,5.41
2023-01-22T07:33:23.829Z,5.44
2023-01-22T07:36:12.888Z,5.40
2023-01-22T07:39:08.469Z,5.41
2023-01-22T07:41:36.429Z,5.45
2023-01-22T07:44:12.138Z,5.46
2023-01-22T07:46:40.366Z,5.48
2023-01-22T07:49:07.975Z,5.53
2023-01-22T07:51:36.334Z,5.60
2023-01-22T07:54:04.095Z,5.62
2023-01-22T07:56:31.998Z,5.67
2023-01-22T07:58:59.908Z,5.68
2023-01-22T08:01:27.936Z,5.69
2023-01-22T08:03:57.276Z,5.65
2023-01-22T08:06:25.122Z,5.63
2023-01-22T08:08:52.751Z,5.58
2023-01-22T08:11:20.519Z,5.58
2023-01-22T08:13:48.109Z,5.61
2023-01-22T08:16:15.961Z,5.68
2023-01-22T08:18:43.691Z,5.80
2023-01-22T08:21:11.727Z,6.08
2023-01-22T08:23:39.328Z,6.40
2023-01-22T08:26:07.093Z,6.64
2023-01-22T08:28:34.631Z,6.64
2023-01-22T08:31:03.966Z,6.64
2023-01-22T08:33:49.941Z,6.59
2023-01-22T08:36:17.809Z,6.59
2023-01-22T08:38:45.223Z,6.59
2023-01-22T08:41:13.659Z,6.60
2023-01-22T08:43:41.182Z,6.56
2023-01-22T08:46:09.095Z,6.51
2023-01-22T08:48:36.657Z,6.46
2023-01-22T08:51:04.710Z,6.41
2023-01-22T08:53:32.262Z,6.37
2023-01-22T08:56:01.743Z,6.38
2023-01-22T08:58:29.224Z,6.32
2023-01-22T09:00:57.285Z,6.28
2023-01-22T09:03:25.026Z,6.28
2023-01-22T09:05:52.937Z,6.30
2023-01-22T09:08:21.649Z,6.30
2023-01-22T09:10:49.555Z,6.38
2023-01-22T09:13:17.112Z,6.39
2023-01-22T09:15:44.910Z,6.39
2023-01-22T09:18:12.402Z,6.40
2023-01-22T09:20:40.183Z,6.38
2023-01-22T09:23:07.911Z,6.40
2023-01-22T09:25:35.776Z,6.43
2023-01-22T09:28:07.246Z,6.44
2023-01-22T09:30:36.294Z,6.43
2023-01-22T09:33:03.838Z,6.40
2023-01-22T09:35:31.696Z,6.41
2023-01-22T09:37:59.243Z,6.36
2023-01-22T09:40:44.541Z,6.34
2023-01-22T09:43:45.769Z,6.36
2023-01-22T09:46:25.229Z,6.36
2023-01-22T09:49:02.575Z,6.31
2023-01-22T09:51:30.737Z,6.27
2023-01-22T09:54:01.232Z,6.29
2023-01-22T09:56:59.217Z,6.25
2023-01-22T09:59:47.817Z,6.23
2023-01-22T10:02:31.541Z,6.22
2023-01-22T10:05:39.299Z,6.20
2023-01-22T10:08:23.032Z,6.21
2023-01-22T10:10:52.178Z,6.20
2023-01-22T10:13:34.506Z,6.23
2023-01-22T10:16:03.042Z,6.27
2023-01-22T10:19:12.451Z,6.30
2023-01-22T10:21:53.786Z,6.28
2023-01-22T10:24:22.054Z,6.28
2023-01-22T10:26:55.475Z,6.31
2023-01-22T10:29:34.573Z,6.35
2023-01-22T10:32:15.617Z,6.42
2023-01-22T10:34:43.813Z,6.44
2023-01-22T10:37:18.058Z,6.47
2023-01-22T10:39:50.865Z,6.44
2023-01-22T10:42:23.255Z,6.42
2023-01-22T10:45:09.668Z,6.40
2023-01-22T10:47:37.526Z,6.38
2023-01-22T10:50:15.097Z,6.38
2023-01-22T10:52:50.304Z,6.34
2023-01-22T10:55:25.147Z,6.35
2023-01-22T10:58:07.689Z,6.40
2023-01-22T11:00:51.539Z,6.46
2023-01-22T11:03:28.783Z,6.51
2023-01-22T11:06:21.228Z,6.58
2023-01-22T11:09:07.447Z,6.69
2023-01-22T11:11:47.428Z,6.73
2023-01-22T11:14:35.514Z,6.86
2023-01-22T11:17:29.444Z,7.15
2023-01-22T11:20:11.723Z,7.28
2023-01-22T11:22:43.689Z,7.35
2023-01-22T11:25:12.536Z,7.38
2023-01-22T11:28:12.450Z,7.38
2023-01-22T11:31:09.050Z,7.38
2023-01-22T11:34:18.874Z,7.29
2023-01-22T11:37:11.622Z,7.28
2023-01-22T11:39:47.600Z,7.22
2023-01-22T11:42:45.547Z,7.18
2023-01-22T11:45:47.605Z,7.19
2023-01-22T11:48:48.674Z,7.14
2023-01-22T11:51:39.841Z,7.08
2023-01-22T11:54:23.052Z,7.09
2023-01-22T11:57:25.541Z,7.08
2023-01-22T12:00:43.276Z,7.06
2023-01-22T12:03:51.770Z,7.01
2023-01-22T12:06:43.662Z,6.97
2023-01-22T12:09:17.877Z,7.00
2023-01-22T12:12:22.956Z,7.05
2023-01-22T12:15:19.217Z,7.08
2023-01-22T12:18:01.870Z,7.11
2023-01-22T12:21:07.997Z,7.21
2023-01-22T12:23:57.050Z,7.23
2023-01-22T12:26:32.024Z,7.19
2023-01-22T12:29:39.190Z,7.13
2023-01-22T12:32:11.040Z,7.16
2023-01-22T12:34:50.190Z,7.12
2023-01-22T12:37:23.429Z,7.15
2023-01-22T12:40:30.029Z,7.18
2023-01-22T12:43:07.014Z,7.01
2023-01-22T12:46:12.242Z,6.94
2023-01-22T12:49:10.960Z,6.90
2023-01-22T12:51:49.866Z,6.92
2023-01-22T12:54:36.519Z,6.96
2023-01-22T12:57:26.641Z,7.00
2023-01-22T12:59:58.674Z,7.03
2023-01-22T13:02:35.826Z,7.06
2023-01-22T13:05:33.059Z,7.09
2023-01-22T13:08:20.742Z,7.04
2023-01-22T13:11:06.515Z,6.97
2023-01-22T13:14:14.825Z,6.83
2023-01-22T13:16:59.619Z,6.77
2023-01-22T13:19:36.110Z,6.73
2023-01-22T13:22:04.777Z,6.69
2023-01-22T13:24:33.061Z,6.77
2023-01-22T13:27:03.400Z,6.86
2023-01-22T13:29:37.704Z,6.95
2023-01-22T13:32:17.472Z,7.06
2023-01-22T13:34:45.265Z,7.13
2023-01-22T13:37:27.644Z,7.15
2023-01-22T13:39:55.167Z,7.15
2023-01-22T13:42:27.389Z,7.14
2023-01-22T13:44:56.793Z,7.16
2023-01-22T13:47:34.428Z,7.11
2023-01-22T13:50:03.720Z,7.02
2023-01-22T13:52:33.724Z,6.93
2023-01-22T13:55:06.954Z,6.89
2023-01-22T13:57:34.821Z,6.89
2023-01-22T14:00:05.224Z,6.88
2023-01-22T14:02:36.199Z,6.93
2023-01-22T14:05:04.738Z,6.80
2023-01-22T14:07:38.459Z,6.69
2023-01-22T14:10:24.245Z,6.62
2023-01-22T14:13:06.084Z,6.66
2023-01-22T14:16:13.377Z,6.69
2023-01-22T14:18:50.442Z,6.69
2023-01-22T14:21:18.079Z,6.67
2023-01-22T14:23:48.987Z,6.66
2023-01-22T14:26:16.812Z,6.63
2023-01-22T14:29:03.459Z,6.61
2023-01-22T14:31:31.132Z,6.58
2023-01-22T14:33:58.963Z,6.57
2023-01-22T14:36:26.709Z,6.56
2023-01-22T14:38:55.488Z,6.59
2023-01-22T14:41:23.409Z,6.58
2023-01-22T14:43:51.184Z,6.54
2023-01-22T14:46:18.877Z,6.52
2023-01-22T14:48:47.243Z,6.49
2023-01-22T14:51:14.871Z,6.50
2023-01-22T14:53:43.735Z,6.50
2023-01-22T14:56:11.197Z,6.50
2023-01-22T14:58:39.311Z,6.51
2023-01-22T15:01:17.970Z,6.48
2023-01-22T15:03:47.037Z,6.43
2023-01-22T15:06:14.825Z,6.44
2023-01-22T15:08:42.790Z,6.39
2023-01-22T15:11:10.429Z,6.34
2023-01-22T15:13:38.463Z,6.33
2023-01-22T15:16:09.541Z,6.33
2023-01-22T15:18:39.880Z,6.34
2023-01-22T15:21:08.374Z,6.34
2023-01-22T15:23:36.667Z,6.38
2023-01-22T15:26:09.964Z,6.38
2023-01-22T15:28:38.574Z,6.36
2023-01-22T15:31:08.086Z,6.36
2023-01-22T15:33:37.533Z,6.36
2023-01-22T15:36:07.117Z,6.30
2023-01-22T15:38:35.460Z,6.28
2023-01-22T15:42:09.609Z,6.30
2023-01-22T15:44:39.539Z,6.23
2023-01-22T15:47:08.366Z,6.20
2023-01-22T15:49:37.052Z,6.21
2023-01-22T15:52:05.197Z,6.18
2023-01-22T15:54:33.571Z,6.21
2023-01-22T15:57:01.758Z,6.23
2023-01-22T15:59:30.513Z,6.22
2023-01-22T16:01:58.255Z,6.20
2023-01-22T16:04:26.347Z,6.18
2023-01-22T16:06:53.994Z,6.16
2023-01-22T16:09:22.112Z,6.11
2023-01-22T16:11:57.450Z,6.07
2023-01-22T16:14:25.626Z,6.05
2023-01-22T16:16:54.627Z,6.10
2023-01-22T16:19:22.845Z,6.13
2023-01-22T16:21:52.415Z,6.11
2023-01-22T16:24:20.537Z,6.10
2023-01-22T16:26:48.138Z,6.09
2023-01-22T16:29:16.366Z,6.08
2023-01-22T16:31:44.151Z,6.10
2023-01-22T16:34:19.725Z,6.11
2023-01-22T16:36:48.868Z,6.08
2023-01-22T16:39:21.966Z,6.10
2023-01-22T16:41:51.883Z,6.09
2023-01-22T16:44:27.371Z,6.10
2023-01-22T16:46:57.857Z,6.12
2023-01-22T16:49:32.491Z,6.13
2023-01-22T16:52:21.080Z,6.09
2023-01-22T16:54:51.144Z,6.07
2023-01-22T16:57:20.529Z,6.05
2023-01-22T16:59:54.686Z,6.07
2023-01-22T17:02:26.923Z,6.06
2023-01-22T17:04:57.259Z,6.09
2023-01-22T17:07:33.724Z,6.09
2023-01-22T17:10:03.124Z,6.08
2023-01-22T17:12:31.644Z,5.96
2023-01-22T17:15:00.133Z,5.93
2023-01-22T17:17:28.848Z,5.90
2023-01-22T17:19:57.116Z,5.90
2023-01-22T17:22:25.595Z,5.90
2023-01-22T17:24:55.412Z,5.92
2023-01-22T17:27:25.818Z,5.89
2023-01-22T17:29:54.035Z,5.87
2023-01-22T17:32:25.545Z,5.87
2023-01-22T17:34:56.767Z,5.93
2023-01-22T17:37:27.661Z,5.98
2023-01-22T17:40:04.443Z,6.02
2023-01-22T17:42:32.395Z,6.05
2023-01-22T17:45:00.353Z,6.06
2023-01-22T17:47:28.368Z,6.01
2023-01-22T17:49:56.352Z,5.98
2023-01-22T17:52:23.965Z,5.95
2023-01-22T17:54:53.477Z,5.98
2023-01-22T17:57:21.242Z,5.93
2023-01-22T17:59:49.512Z,5.89
2023-01-22T18:02:17.163Z,5.86
2023-01-22T18:04:46.670Z,5.88
2023-01-22T18:07:14.371Z,5.92
2023-01-22T18:09:46.595Z,5.92
2023-01-22T18:12:43.795Z,5.98
2023-01-22T18:15:15.455Z,6.02
2023-01-22T18:17:47.965Z,6.06
2023-01-22T18:20:17.489Z,6.08
2023-01-22T18:22:45.133Z,6.09
2023-01-22T18:25:13.020Z,6.08
2023-01-22T18:27:40.830Z,6.05
2023-01-22T18:30:11.807Z,6.02
2023-01-22T18:32:40.082Z,6.03
2023-01-22T18:35:08.865Z,5.98
2023-01-22T18:37:38.100Z,5.95
2023-01-22T18:40:06.957Z,5.95
2023-01-22T18:42:34.587Z,5.99
2023-01-22T18:45:04.281Z,6.02
2023-01-22T18:47:34.702Z,6.06
2023-01-22T18:50:02.557Z,6.10
2023-01-22T18:52:30.031Z,6.15
2023-01-22T18:54:58.173Z,6.15
2023-01-22T18:57:47.438Z,6.16
2023-01-22T19:00:15.618Z,6.14
2023-01-22T19:02:43.383Z,6.10
2023-01-22T19:05:11.375Z,6.13
2023-01-22T19:07:39.029Z,6.16
2023-01-22T19:10:08.769Z,6.17
2023-01-22T19:12:36.211Z,6.17
2023-01-22T19:15:04.383Z,6.15
2023-01-22T19:17:31.939Z,6.16
2023-01-22T19:20:01.492Z,6.20
2023-01-22T19:22:30.143Z,6.21
2023-01-22T19:24:58.115Z,6.26
2023-01-22T19:27:25.703Z,6.25
2023-01-22T19:29:54.119Z,6.27
2023-01-22T19:32:27.821Z,6.28
2023-01-22T19:34:56.452Z,6.27
2023-01-22T19:37:25.255Z,6.32
2023-01-22T19:39:53.375Z,6.31
2023-01-22T19:42:20.946Z,6.27
2023-01-22T19:44:48.801Z,6.27
2023-01-22T19:47:17.595Z,6.29
2023-01-22T19:49:45.722Z,6.32
2023-01-22T19:52:16.476Z,6.33
2023-01-22T19:54:47.955Z,6.31
2023-01-22T19:57:15.920Z,6.30
2023-01-22T19:59:43.991Z,6.33
2023-01-22T20:02:15.216Z,6.34
2023-01-22T20:04:43.340Z,6.38
2023-01-22T20:07:11.162Z,6.46
2023-01-22T20:09:39.063Z,6.46
2023-01-22T20:12:08.757Z,6.51
2023-01-22T20:14:41.370Z,6.48
2023-01-22T20:17:09.514Z,6.45
2023-01-22T20:19:39.465Z,6.42
2023-01-22T20:22:07.346Z,6.45
2023-01-22T20:24:37.538Z,6.47
2023-01-22T20:27:05.043Z,6.47
2023-01-22T20:29:33.013Z,6.44
2023-01-22T20:32:00.790Z,6.41
2023-01-22T20:34:28.767Z,6.35
2023-01-22T20:36:57.053Z,6.39
2023-01-22T20:39:25.426Z,6.40
2023-01-22T20:41:54.858Z,6.41
2023-01-22T20:44:23.173Z,6.42
2023-01-22T20:46:51.601Z,6.43
2023-01-22T20:49:39.731Z,6.44
2023-01-22T20:52:07.758Z,6.45
2023-01-22T20:54:42.810Z,6.45
2023-01-22T20:57:19.712Z,6.44
2023-01-22T20:59:48.039Z,6.43
2023-01-22T21:02:18.113Z,6.39
2023-01-22T21:04:50.835Z,6.37
2023-01-22T21:07:20.470Z,6.36
2023-01-22T21:09:50.062Z,6.39
2023-01-22T21:12:17.815Z,6.42
2023-01-22T21:14:46.298Z,6.45
2023-01-22T21:17:13.940Z,6.48
2023-01-22T21:19:44.169Z,6.51
2023-01-22T21:22:11.944Z,6.50
2023-01-22T21:24:40.036Z,6.47
2023-01-22T21:27:07.610Z,6.45
2023-01-22T21:29:35.779Z,6.45
2023-01-22T21:32:03.624Z,6.46
2023-01-22T21:34:33.496Z,6.45
2023-01-22T21:37:01.708Z,6.47
2023-01-22T21:39:30.755Z,6.46
2023-01-22T21:42:18.108Z,6.48
2023-01-22T21:45:05.286Z,6.49
2023-01-22T21:47:33.165Z,6.47
2023-01-22T21:50:01.055Z,6.51
2023-01-22T21:52:28.923Z,6.51
2023-01-22T21:54:57.044Z,6.56
2023-01-22T21:57:45.377Z,6.55
2023-01-22T22:00:25.267Z,6.57
2023-01-22T22:03:07.454Z,6.54
2023-01-22T22:06:13.713Z,6.52
2023-01-22T22:08:43.646Z,6.53
2023-01-22T22:11:14.164Z,6.49
2023-01-22T22:13:45.799Z,6.46
2023-01-22T22:16:20.582Z,6.41
2023-01-22T22:18:48.895Z,6.37
2023-01-22T22:21:39.969Z,6.37
2023-01-22T22:24:10.792Z,6.37
2023-01-22T22:26:41.929Z,6.35
2023-01-22T22:29:10.800Z,6.37
2023-01-22T22:31:40.447Z,6.36
2023-01-22T22:34:08.057Z,6.38
2023-01-22T22:36:36.263Z,6.34
2023-01-22T22:39:07.779Z,6.38
2023-01-22T22:41:40.058Z,6.40
2023-01-22T22:44:13.787Z,6.43
2023-01-22T22:46:48.498Z,6.46
2023-01-22T22:49:17.055Z,6.46
2023-01-22T22:51:46.432Z,6.46
2023-01-22T22:54:18.850Z,6.40
2023-01-22T22:56:48.740Z,6.38
2023-01-22T22:59:19.742Z,6.38
2023-01-22T23:01:49.703Z,6.40
2023-01-22T23:04:17.638Z,6.46
2023-01-22T23:06:46.755Z,6.46
2023-01-22T23:09:20.757Z,6.48
2023-01-22T23:11:52.049Z,6.47
2023-01-22T23:14:19.958Z,6.50
2023-01-22T23:16:48.482Z,6.53
2023-01-22T23:19:20.519Z,6.56
2023-01-22T23:21:56.210Z,6.55
2023-01-22T23:24:24.098Z,6.54
2023-01-22T23:26:52.682Z,6.59
2023-01-22T23:29:24.192Z,6.56
2023-01-22T23:31:53.028Z,6.53
2023-01-22T23:34:22.783Z,6.53
2023-01-22T23:36:51.680Z,6.52
2023-01-22T23:39:21.465Z,6.52
2023-01-22T23:41:49.589Z,6.50
2023-01-22T23:44:17.522Z,6.47
2023-01-22T23:46:45.789Z,6.54
2023-01-22T23:49:13.720Z,6.67
2023-01-22T23:51:43.685Z,6.74
2023-01-22T23:54:11.233Z,6.67
2023-01-22T23:56:39.107Z,6.59
2023-01-22T23:59:06.917Z,6.57
